createdAt,value
2023-05-13T00:00:35.205Z,102230.69
2023-05-13T00:03:03.588Z,102224.59
2023-05-13T00:05:32.136Z,102229.72
2023-05-13T00:08:02.254Z,102221.53
2023-05-13T00:10:30.563Z,102222.41
2023-05-13T00:13:00.257Z,102219.94
2023-05-13T00:15:28.928Z,102218.22
2023-05-13T00:17:57.802Z,102218.94
2023-05-13T00:20:26.632Z,102212.09
2023-05-13T00:22:54.678Z,102214.66
2023-05-13T00:25:22.803Z,102216.38
2023-05-13T00:27:51.534Z,102208.66
2023-05-13T00:30:21.494Z,102224.81
2023-05-13T00:32:49.981Z,102212.09
2023-05-13T00:35:19.086Z,102216.72
2023-05-13T00:37:47.861Z,102228.25
2023-05-13T00:40:21.022Z,102231.19
2023-05-13T00:42:49.752Z,102231.19
2023-05-13T00:45:17.954Z,102223.97
2023-05-13T00:47:47.743Z,102234.59
2023-05-13T00:50:16.259Z,102229.13
2023-05-13T00:52:44.677Z,102236.22
2023-05-13T00:55:12.958Z,102232.03
2023-05-13T00:57:41.385Z,102220.41
2023-05-13T01:00:11.007Z,102216.00
2023-05-13T01:02:46.950Z,102211.59
2023-05-13T01:05:23.661Z,102214.53
2023-05-13T01:08:00.594Z,102212.06
2023-05-13T01:10:47.764Z,102221.25
2023-05-13T01:13:21.770Z,102222.31
2023-05-13T01:15:53.208Z,102226.22
2023-05-13T01:18:26.340Z,102222.78
2023-05-13T01:20:57.466Z,102229.88
2023-05-13T01:23:26.866Z,102231.59
2023-05-13T01:25:54.881Z,102228.69
2023-05-13T01:28:23.322Z,102228.47
2023-05-13T01:30:51.784Z,102225.41
2023-05-13T01:33:21.055Z,102221.88
2023-05-13T01:35:49.262Z,102219.28
2023-05-13T01:38:19.877Z,102223.81
2023-05-13T01:40:49.692Z,102217.69
2023-05-13T01:43:18.479Z,102223.44
2023-05-13T01:45:46.450Z,102233.34
2023-05-13T01:48:14.510Z,102227.44
2023-05-13T01:50:42.560Z,102229.63
2023-05-13T01:53:10.602Z,102229.84
2023-05-13T01:55:38.639Z,102215.75
2023-05-13T01:58:08.024Z,102213.41
2023-05-13T02:00:36.018Z,102214.41
2023-05-13T02:03:04.400Z,102211.91
2023-05-13T02:05:33.356Z,102215.69
2023-05-13T02:08:01.525Z,102221.28
2023-05-13T02:10:29.494Z,102219.72
2023-05-13T02:12:58.145Z,102216.72
2023-05-13T02:15:27.698Z,102216.00
2023-05-13T02:17:55.821Z,102207.94
2023-05-13T02:20:24.151Z,102208.13
2023-05-13T02:22:52.235Z,102211.91
2023-05-13T02:25:20.570Z,102213.22
2023-05-13T02:27:48.756Z,102204.75
2023-05-13T02:30:17.930Z,102204.25
2023-05-13T02:32:47.572Z,102220.84
2023-05-13T02:35:16.091Z,102224.84
2023-05-13T02:37:44.256Z,102219.69
2023-05-13T02:40:13.674Z,102218.19
2023-05-13T02:42:43.402Z,102213.78
2023-05-13T02:45:12.565Z,102222.38
2023-05-13T02:47:41.306Z,102222.50
2023-05-13T02:50:12.669Z,102228.94
2023-05-13T02:52:41.007Z,102220.03
2023-05-13T02:55:10.739Z,102212.22
2023-05-13T02:57:39.286Z,102212.28
2023-05-13T03:00:09.564Z,102200.69
2023-05-13T03:02:41.256Z,102196.50
2023-05-13T03:05:11.800Z,102185.13
2023-05-13T03:07:39.930Z,102193.53
2023-05-13T03:10:08.906Z,102188.34
2023-05-13T03:12:37.538Z,102184.94
2023-05-13T03:15:06.533Z,102187.84
2023-05-13T03:17:34.792Z,102195.03
2023-05-13T03:20:02.903Z,102200.53
2023-05-13T03:22:32.447Z,102206.00
2023-05-13T03:25:00.918Z,102198.06
2023-05-13T03:27:29.008Z,102194.38
2023-05-13T03:29:57.073Z,102199.97
2023-05-13T03:32:30.553Z,102191.13
2023-05-13T03:35:00.922Z,102200.19
2023-05-13T03:37:29.276Z,102195.91
2023-05-13T03:39:58.983Z,102202.13
2023-05-13T03:42:26.961Z,102199.44
2023-05-13T03:44:57.083Z,102182.56
2023-05-13T03:47:25.296Z,102186.34
2023-05-13T03:49:56.276Z,102187.28
2023-05-13T03:52:26.894Z,102193.94
2023-05-13T03:54:55.005Z,102188.69
2023-05-13T03:57:24.433Z,102201.38
2023-05-13T03:59:52.498Z,102203.41
2023-05-13T04:02:21.860Z,102206.97
2023-05-13T04:04:50.362Z,102199.97
2023-05-13T04:07:18.669Z,102202.66
2023-05-13T04:09:46.827Z,102190.19
2023-05-13T04:12:15.979Z,102187.75
2023-05-13T04:14:45.627Z,102181.47
2023-05-13T04:17:13.636Z,102180.63
2023-05-13T04:19:41.652Z,102191.38
2023-05-13T04:22:09.836Z,102203.84
2023-05-13T04:24:37.999Z,102201.25
2023-05-13T04:27:06.533Z,102198.56
2023-05-13T04:29:34.755Z,102198.69
2023-05-13T04:32:04.403Z,102198.69
2023-05-13T04:34:32.540Z,102196.84
2023-05-13T04:37:00.708Z,102200.28
2023-05-13T04:39:28.785Z,102202.88
2023-05-13T04:41:57.118Z,102195.03
2023-05-13T04:44:25.260Z,102195.16
2023-05-13T04:46:53.474Z,102196.97
2023-05-13T04:49:23.197Z,102187.94
2023-05-13T04:51:52.448Z,102199.53
2023-05-13T04:54:21.191Z,102179.03
2023-05-13T04:56:49.481Z,102188.69
2023-05-13T04:59:17.561Z,102189.66
2023-05-13T05:01:45.802Z,102193.31
2023-05-13T05:04:14.785Z,102195.03
2023-05-13T05:06:44.447Z,102200.19
2023-05-13T05:09:12.851Z,102198.25
2023-05-13T05:11:40.941Z,102200.72
2023-05-13T05:14:09.381Z,102202.44
2023-05-13T05:16:38.471Z,102193.53
2023-05-13T05:19:06.620Z,102199.75
2023-05-13T05:21:35.265Z,102205.25
2023-05-13T05:24:06.329Z,102204.28
2023-05-13T05:26:34.866Z,102199.03
2023-05-13T05:29:03.168Z,102199.88
2023-05-13T05:31:33.673Z,102205.13
2023-05-13T05:34:02.347Z,102205.78
2023-05-13T05:36:31.439Z,102212.66
2023-05-13T05:38:59.740Z,102196.31
2023-05-13T05:41:29.677Z,102204.69
2023-05-13T05:43:58.042Z,102195.53
2023-05-13T05:46:26.732Z,102207.19
2023-05-13T05:48:55.389Z,102215.16
2023-05-13T05:51:24.060Z,102209.78
2023-05-13T05:53:52.222Z,102205.13
2023-05-13T05:56:20.298Z,102211.81
2023-05-13T05:58:49.815Z,102206.31
2023-05-13T06:01:17.979Z,102204.16
2023-05-13T06:03:47.058Z,102200.41
2023-05-13T06:06:15.505Z,102213.28
2023-05-13T06:08:43.735Z,102206.84
2023-05-13T06:11:12.012Z,102207.03
2023-05-13T06:13:40.817Z,102206.69
2023-05-13T06:16:11.376Z,102200.09
2023-05-13T06:18:40.757Z,102208.47
2023-05-13T06:21:11.024Z,102211.91
2023-05-13T06:23:39.452Z,102215.34
2023-05-13T06:26:08.326Z,102220.25
2023-05-13T06:28:36.596Z,102213.56
2023-05-13T06:31:04.820Z,102213.34
2023-05-13T06:33:35.262Z,102214.00
2023-05-13T06:36:03.608Z,102216.94
2023-05-13T06:38:32.115Z,102214.16
2023-05-13T06:41:00.662Z,102206.81
2023-05-13T06:43:29.100Z,102210.66
2023-05-13T06:45:57.301Z,102224.41
2023-05-13T06:48:25.532Z,102232.91
2023-05-13T06:51:10.011Z,102214.69
2023-05-13T06:53:38.230Z,102215.91
2023-05-13T06:56:06.947Z,102211.69
2023-05-13T06:58:35.336Z,102224.03
2023-05-13T07:01:03.788Z,102219.06
2023-05-13T07:03:32.320Z,102220.28
2023-05-13T07:06:00.569Z,102227.78
2023-05-13T07:08:30.201Z,102229.25
2023-05-13T07:10:58.504Z,102223.38
2023-05-13T07:13:27.435Z,102216.16
2023-05-13T07:15:56.334Z,102230.75
2023-05-13T07:18:25.103Z,102226.09
2023-05-13T07:20:53.899Z,102230.25
2023-05-13T07:23:21.978Z,102231.00
2023-05-13T07:25:52.724Z,102231.97
2023-05-13T07:28:21.409Z,102235.06
2023-05-13T07:30:49.808Z,102229.81
2023-05-13T07:33:17.978Z,102220.47
2023-05-13T07:35:46.332Z,102223.69
2023-05-13T07:38:15.192Z,102212.44
2023-05-13T07:40:43.588Z,102221.25
2023-05-13T07:43:13.675Z,102228.97
2023-05-13T07:45:42.400Z,102219.53
2023-05-13T07:48:10.968Z,102234.47
2023-05-13T07:50:39.353Z,102228.59
2023-05-13T07:53:07.504Z,102221.97
2023-05-13T07:55:35.548Z,102223.44
2023-05-13T07:58:03.735Z,102220.75
2023-05-13T08:00:33.279Z,102220.97
2023-05-13T08:03:01.665Z,102223.41
2023-05-13T08:05:29.842Z,102221.94
2023-05-13T08:07:57.948Z,102220.69
2023-05-13T08:10:25.887Z,102221.91
2023-05-13T08:12:57.877Z,102227.00
2023-05-13T08:15:28.273Z,102223.94
2023-05-13T08:21:03.539Z,102229.91
2023-05-13T08:26:53.531Z,102226.75
2023-05-13T08:29:27.627Z,102229.97
2023-05-13T08:32:04.832Z,102223.03
2023-05-13T08:34:44.540Z,102216.53
2023-05-13T08:37:19.404Z,102220.53
2023-05-13T08:39:51.836Z,102222.44
2023-05-13T08:42:24.005Z,102220.19
2023-05-13T08:44:56.955Z,102216.22
2023-05-13T08:47:35.480Z,102215.25
2023-05-13T08:50:06.152Z,102219.66
2023-05-13T08:52:49.824Z,102215.81
2023-05-13T08:55:20.169Z,102210.53
2023-05-13T08:57:52.696Z,102213.44
2023-05-13T09:00:21.933Z,102210.38
2023-05-13T09:02:51.589Z,102215.81
2023-05-13T09:05:20.914Z,102217.53
2023-05-13T09:07:50.901Z,102215.81
2023-05-13T09:10:20.424Z,102209.84
2023-05-13T09:12:51.208Z,102212.72
2023-05-13T09:15:20.674Z,102218.53
2023-05-13T09:17:52.627Z,102240.22
2023-05-13T09:20:22.341Z,102235.47
2023-05-13T09:22:53.594Z,102237.59
2023-05-13T09:25:24.836Z,102233.97
2023-05-13T09:27:57.968Z,102242.47
2023-05-13T09:30:27.532Z,102241.16
2023-05-13T09:33:11.712Z,102230.09
2023-05-13T09:35:41.777Z,102235.97
2023-05-13T09:38:23.800Z,102234.16
2023-05-13T09:40:56.700Z,102239.63
2023-05-13T09:43:30.114Z,102227.16
2023-05-13T09:45:59.768Z,102224.22
2023-05-13T09:48:29.720Z,102223.56
2023-05-13T09:51:01.069Z,102235.53
2023-05-13T09:53:46.911Z,102235.13
2023-05-13T09:56:15.432Z,102239.97
2023-05-13T09:58:52.708Z,102231.34
2023-05-13T10:01:22.137Z,102235.47
2023-05-13T10:03:51.442Z,102229.78
2023-05-13T10:06:32.983Z,102235.50
2023-05-13T10:09:04.749Z,102228.28
2023-05-13T10:11:37.174Z,102230.56
2023-05-13T10:14:18.486Z,102231.59
2023-05-13T10:16:49.650Z,102234.28
2023-05-13T10:19:20.241Z,102236.72
2023-05-13T10:21:51.945Z,102230.03
2023-05-13T10:24:23.493Z,102233.72
2023-05-13T10:26:54.711Z,102231.59
2023-05-13T10:29:24.640Z,102229.72
2023-05-13T10:31:54.354Z,102223.88
2023-05-13T10:34:23.989Z,102230.47
2023-05-13T10:37:12.931Z,102229.44
2023-05-13T10:40:05.041Z,102232.84
2023-05-13T10:42:44.891Z,102223.72
2023-05-13T10:45:14.620Z,102220.56
2023-05-13T10:48:06.426Z,102228.56
2023-05-13T10:50:46.353Z,102231.81
2023-05-13T10:53:24.604Z,102233.94
2023-05-13T10:56:00.577Z,102235.03
2023-05-13T10:58:34.028Z,102226.84
2023-05-13T11:01:28.663Z,102220.81
2023-05-13T11:03:58.784Z,102224.09
2023-05-13T11:06:33.199Z,102222.66
2023-05-13T11:09:01.523Z,102222.91
2023-05-13T11:11:35.372Z,102221.44
2023-05-13T11:14:16.983Z,102219.50
2023-05-13T11:16:53.660Z,102222.84
2023-05-13T11:19:24.883Z,102217.34
2023-05-13T11:21:54.766Z,102209.03
2023-05-13T11:24:24.710Z,102214.00
2023-05-13T11:26:56.472Z,102218.97
2023-05-13T11:29:32.736Z,102208.13
2023-05-13T11:32:02.761Z,102203.94
2023-05-13T11:34:32.157Z,102201.84
2023-05-13T11:37:11.397Z,102210.97
2023-05-13T11:39:42.153Z,102209.38
2023-05-13T11:42:15.879Z,102212.13
2023-05-13T11:45:01.940Z,102215.16
2023-05-13T11:47:34.672Z,102208.44
2023-05-13T11:50:07.891Z,102202.03
2023-05-13T11:55:38.056Z,102201.91
2023-05-13T11:58:08.600Z,102203.69
2023-05-13T12:03:34.021Z,102202.75
2023-05-13T12:12:07.624Z,102204.22
2023-05-13T12:15:21.896Z,102195.88
2023-05-13T12:17:51.352Z,102202.03
2023-05-13T12:20:21.410Z,102188.94
2023-05-13T12:22:58.829Z,102195.41
2023-05-13T12:25:42.491Z,102191.88
2023-05-13T12:28:17.866Z,102189.16
2023-05-13T12:30:54.320Z,102180.00
2023-05-13T12:33:24.001Z,102182.41
2023-05-13T12:35:53.593Z,102182.75
2023-05-13T12:38:24.299Z,102189.41
2023-05-13T12:40:54.856Z,102175.28
2023-05-13T12:43:25.007Z,102184.47
2023-05-13T12:45:56.899Z,102186.50
2023-05-13T12:48:26.551Z,102191.63
2023-05-13T12:50:59.614Z,102180.84
2023-05-13T12:53:29.756Z,102178.91
2023-05-13T12:55:58.073Z,102179.72
2023-05-13T12:58:27.321Z,102175.78
2023-05-13T13:01:00.704Z,102167.88
2023-05-13T13:03:29.980Z,102182.59
2023-05-13T13:05:59.600Z,102173.06
2023-05-13T13:08:30.527Z,102182.03
2023-05-13T13:11:00.454Z,102169.63
2023-05-13T13:13:28.756Z,102175.84
2023-05-13T13:15:58.415Z,102168.47
2023-05-13T13:18:26.888Z,102166.84
2023-05-13T13:20:56.352Z,102175.34
2023-05-13T13:23:25.355Z,102163.75
2023-05-13T13:25:53.657Z,102160.66
2023-05-13T13:28:21.794Z,102170.84
2023-05-13T13:31:00.493Z,102161.88
2023-05-13T13:33:30.246Z,102164.03
2023-05-13T13:36:03.413Z,102165.25
2023-05-13T13:38:31.694Z,102163.44
2023-05-13T13:40:59.984Z,102164.16
2023-05-13T13:43:28.390Z,102167.88
2023-05-13T13:45:57.897Z,102164.75
2023-05-13T13:48:25.913Z,102162.91
2023-05-13T13:50:56.029Z,102143.50
2023-05-13T13:53:27.677Z,102150.34
2023-05-13T13:56:01.905Z,102145.50
2023-05-13T13:58:30.399Z,102145.34
2023-05-13T14:01:01.970Z,102148.81
2023-05-13T14:03:30.603Z,102143.00
2023-05-13T14:06:00.151Z,102145.03
2023-05-13T14:08:28.881Z,102139.09
2023-05-13T14:10:58.157Z,102133.34
2023-05-13T14:13:26.422Z,102145.50
2023-05-13T14:15:54.587Z,102127.41
2023-05-13T14:18:24.997Z,102131.91
2023-05-13T14:20:53.367Z,102130.00
2023-05-13T14:23:23.075Z,102133.47
2023-05-13T14:25:51.572Z,102124.84
2023-05-13T14:28:22.716Z,102120.38
2023-05-13T14:30:52.637Z,102112.47
2023-05-13T14:33:21.929Z,102114.59
2023-05-13T14:35:52.876Z,102112.00
2023-05-13T14:38:25.248Z,102110.63
2023-05-13T14:40:53.505Z,102110.34
2023-05-13T14:43:21.634Z,102099.94
2023-05-13T14:45:51.103Z,102098.06
2023-05-13T14:48:21.508Z,102105.31
2023-05-13T14:50:52.076Z,102103.47
2023-05-13T14:53:20.209Z,102108.94
2023-05-13T14:55:51.495Z,102107.63
2023-05-13T14:58:22.903Z,102104.38
2023-05-13T15:01:07.656Z,102098.38
2023-05-13T15:03:38.074Z,102091.66
2023-05-13T15:06:10.876Z,102096.19
2023-05-13T15:08:39.786Z,102088.91
2023-05-13T15:11:42.302Z,102085.84
2023-05-13T15:29:31.664Z,102081.47
2023-05-13T17:04:55.159Z,102010.75
2023-05-13T18:14:32.681Z,101969.69
2023-05-13T19:22:47.344Z,101986.66
2023-05-13T19:28:15.402Z,101996.19
2023-05-13T19:30:44.910Z,101997.38
2023-05-13T19:36:23.286Z,102003.34
2023-05-13T19:39:06.621Z,101986.34
2023-05-13T19:44:34.216Z,101984.56
2023-05-13T19:47:02.800Z,102005.69
2023-05-13T19:49:31.730Z,102003.56
2023-05-13T19:52:02.226Z,102014.13
2023-05-13T19:54:31.000Z,102014.25
2023-05-13T19:57:01.872Z,102010.69
2023-05-13T19:59:31.344Z,102014.69
2023-05-13T23:47:14.590Z,102015.03
